createdAt,value
2022-09-29T00:00:22.928Z,13.27
2022-09-29T00:02:50.177Z,12.38
2022-09-29T00:05:17.499Z,9.82
2022-09-29T00:07:44.942Z,12.25
2022-09-29T00:10:12.597Z,11.70
2022-09-29T00:12:40.219Z,18.92
2022-09-29T00:15:07.672Z,13.38
2022-09-29T00:17:34.918Z,13.60
2022-09-29T00:20:02.287Z,15.82
2022-09-29T00:22:29.476Z,16.60
2022-09-29T00:24:56.719Z,34.83
2022-09-29T00:27:23.935Z,20.20
2022-09-29T00:29:51.129Z,20.65
2022-09-29T00:32:18.507Z,25.52
2022-09-29T00:34:45.697Z,43.45
2022-09-29T00:37:13.715Z,31.15
2022-09-29T00:39:40.949Z,43.88
2022-09-29T00:42:08.148Z,32.67
2022-09-29T00:44:56.239Z,9.85
2022-09-29T00:47:25.939Z,9.25
2022-09-29T00:49:56.516Z,10.00
2022-09-29T00:52:23.691Z,10.18
2022-09-29T00:54:52.485Z,10.32
2022-09-29T00:57:22.078Z,11.80
2022-09-29T00:59:55.635Z,9.65
2022-09-29T01:02:23.607Z,11.25
2022-09-29T01:04:52.972Z,11.93
2022-09-29T01:07:22.106Z,14.30
2022-09-29T01:09:51.095Z,12.35
2022-09-29T01:12:18.567Z,12.30
2022-09-29T01:14:45.928Z,11.73
2022-09-29T01:17:13.224Z,11.55
2022-09-29T01:19:40.415Z,12.93
2022-09-29T01:22:33.925Z,39.47
2022-09-29T01:25:19.900Z,33.38
2022-09-29T01:27:50.147Z,31.30
2022-09-29T01:30:17.383Z,33.55
2022-09-29T01:32:53.259Z,39.47
2022-09-29T01:35:23.243Z,33.80
2022-09-29T01:38:08.453Z,15.15
2022-09-29T01:40:41.628Z,70.28
2022-09-29T01:43:21.680Z,54.45
2022-09-29T01:45:53.078Z,21.45
2022-09-29T01:48:32.217Z,18.08
2022-09-29T01:51:01.967Z,52.17
2022-09-29T01:53:31.636Z,11.52
2022-09-29T01:56:02.669Z,54.00
2022-09-29T01:58:42.052Z,21.33
2022-09-29T02:01:12.568Z,29.65
2022-09-29T02:03:43.049Z,17.63
2022-09-29T02:06:22.820Z,59.33
2022-09-29T02:08:57.596Z,38.90
2022-09-29T02:11:25.223Z,18.58
2022-09-29T02:14:02.734Z,17.02
2022-09-29T02:16:31.234Z,12.00
2022-09-29T02:19:04.128Z,17.63
2022-09-29T02:21:31.348Z,24.33
2022-09-29T02:23:58.669Z,60.40
2022-09-29T02:26:29.382Z,27.15
2022-09-29T02:28:56.612Z,37.10
2022-09-29T02:31:24.587Z,11.95
2022-09-29T02:33:51.864Z,18.40
2022-09-29T02:36:48.626Z,11.50
2022-09-29T02:39:30.885Z,18.35
2022-09-29T02:42:17.495Z,21.20
2022-09-29T02:44:57.494Z,14.88
2022-09-29T02:47:27.998Z,13.80
2022-09-29T02:50:13.802Z,22.88
2022-09-29T02:53:10.571Z,16.60
2022-09-29T02:55:50.343Z,16.27
2022-09-29T02:58:26.831Z,25.02
2022-09-29T03:00:55.090Z,14.40
2022-09-29T03:03:22.402Z,29.95
2022-09-29T03:05:49.785Z,56.95
2022-09-29T03:08:17.079Z,12.13
2022-09-29T03:10:44.429Z,13.88
2022-09-29T03:13:11.630Z,13.60
2022-09-29T03:15:38.875Z,31.85
2022-09-29T03:18:10.066Z,18.02
2022-09-29T03:20:37.622Z,19.33
2022-09-29T03:23:04.846Z,27.88
2022-09-29T03:25:32.061Z,34.88
2022-09-29T03:27:59.308Z,28.48
2022-09-29T03:30:26.556Z,36.88
2022-09-29T03:32:54.013Z,65.65
2022-09-29T03:35:21.211Z,60.45
2022-09-29T03:37:48.410Z,46.95
2022-09-29T03:40:15.783Z,61.00
2022-09-29T03:42:42.998Z,37.10
2022-09-29T03:45:10.524Z,60.75
2022-09-29T03:47:37.714Z,45.40
2022-09-29T03:50:05.045Z,56.55
2022-09-29T03:52:32.276Z,18.65
2022-09-29T03:54:59.525Z,17.92
2022-09-29T03:57:26.819Z,21.63
2022-09-29T03:59:54.035Z,41.28
2022-09-29T04:02:21.328Z,42.97
2022-09-29T04:04:48.649Z,16.25
2022-09-29T04:07:15.992Z,24.35
2022-09-29T04:09:43.327Z,26.02
2022-09-29T04:12:10.672Z,69.90
2022-09-29T04:14:37.915Z,23.63
2022-09-29T04:17:05.110Z,40.00
2022-09-29T04:19:32.375Z,36.05
2022-09-29T04:21:59.585Z,20.35
2022-09-29T04:24:27.246Z,70.53
2022-09-29T04:26:54.520Z,57.55
2022-09-29T04:29:21.739Z,36.60
2022-09-29T04:31:49.068Z,52.13
2022-09-29T04:34:18.768Z,71.05
2022-09-29T04:36:46.376Z,40.15
2022-09-29T04:39:13.626Z,48.35
2022-09-29T04:41:41.452Z,18.30
2022-09-29T04:44:08.680Z,43.80
2022-09-29T04:46:35.914Z,23.15
2022-09-29T04:49:03.254Z,39.50
2022-09-29T04:51:30.502Z,33.03
2022-09-29T04:53:58.816Z,39.35
2022-09-29T04:56:31.287Z,21.80
2022-09-29T04:58:59.130Z,55.00
2022-09-29T05:01:26.429Z,36.88
2022-09-29T05:03:53.710Z,27.42
2022-09-29T05:06:20.978Z,39.42
2022-09-29T05:08:48.224Z,37.67
2022-09-29T05:11:15.878Z,70.05
2022-09-29T05:13:43.198Z,43.85
2022-09-29T05:16:10.470Z,28.95
2022-09-29T05:18:37.739Z,42.17
2022-09-29T05:21:26.371Z,45.58
2022-09-29T05:23:53.215Z,30.27
2022-09-29T05:26:20.489Z,27.63
2022-09-29T05:28:48.495Z,32.90
2022-09-29T05:31:16.032Z,29.90
2022-09-29T05:33:43.647Z,69.80
2022-09-29T05:36:12.346Z,52.78
2022-09-29T05:38:39.898Z,69.45
2022-09-29T05:41:12.164Z,58.97
2022-09-29T05:43:39.917Z,27.35
2022-09-29T05:46:08.065Z,49.10
2022-09-29T05:48:35.339Z,49.53
2022-09-29T05:51:08.127Z,40.03
2022-09-29T05:53:35.519Z,46.88
2022-09-29T05:56:14.449Z,39.03
2022-09-29T05:58:42.009Z,27.75
2022-09-29T06:01:14.367Z,33.38
2022-09-29T06:03:41.695Z,36.33
2022-09-29T06:06:13.292Z,29.27
2022-09-29T06:08:40.765Z,22.67
2022-09-29T06:11:09.351Z,46.42
2022-09-29T06:13:43.581Z,31.92
2022-09-29T06:16:11.405Z,24.20
2022-09-29T06:18:38.716Z,27.90
2022-09-29T06:21:15.993Z,49.92
2022-09-29T06:23:43.279Z,29.33
2022-09-29T06:26:12.869Z,40.20
2022-09-29T06:28:40.242Z,40.08
2022-09-29T06:31:18.498Z,30.58
2022-09-29T06:33:45.915Z,31.85
2022-09-29T06:36:51.845Z,33.75
2022-09-29T06:39:19.149Z,50.67
2022-09-29T06:41:53.807Z,52.83
2022-09-29T06:44:21.413Z,31.88
2022-09-29T06:46:49.291Z,40.40
2022-09-29T06:49:16.839Z,33.72
2022-09-29T06:51:46.399Z,26.50
2022-09-29T06:54:15.296Z,26.27
2022-09-29T06:56:42.755Z,25.83
2022-09-29T06:59:10.251Z,39.08
2022-09-29T07:01:37.732Z,32.60
2022-09-29T07:04:05.112Z,60.53
2022-09-29T07:06:32.459Z,71.75
2022-09-29T07:09:01.326Z,53.78
2022-09-29T07:11:29.116Z,46.20
2022-09-29T07:13:56.575Z,56.70
2022-09-29T07:16:24.565Z,82.40
2022-09-29T07:18:52.375Z,67.90
2022-09-29T07:21:22.214Z,37.42
2022-09-29T07:23:49.971Z,51.22
2022-09-29T07:26:17.507Z,50.38
2022-09-29T07:28:45.928Z,51.83
2022-09-29T07:31:15.466Z,48.58
2022-09-29T07:33:47.036Z,43.63
2022-09-29T07:36:15.185Z,52.40
2022-09-29T07:38:42.545Z,50.78
2022-09-29T07:41:11.640Z,66.82
2022-09-29T07:43:39.390Z,52.50
2022-09-29T07:46:07.364Z,43.22
2022-09-29T07:48:35.215Z,43.97
2022-09-29T07:51:11.183Z,43.95
2022-09-29T07:53:38.723Z,46.80
2022-09-29T07:56:10.112Z,42.63
2022-09-29T07:58:37.828Z,44.28
2022-09-29T08:01:06.685Z,52.33
2022-09-29T08:03:34.485Z,41.30
2022-09-29T08:06:01.739Z,49.22
2022-09-29T08:08:28.980Z,38.80
2022-09-29T08:11:24.454Z,40.45
2022-09-29T08:13:55.931Z,44.25
2022-09-29T08:16:23.736Z,46.65
2022-09-29T08:18:51.084Z,37.17
2022-09-29T08:21:18.498Z,35.60
2022-09-29T08:23:45.758Z,31.20
2022-09-29T08:26:17.329Z,31.95
2022-09-29T08:31:14.189Z,32.63
2022-09-29T08:33:41.949Z,39.60
2022-09-29T08:36:14.642Z,41.47
2022-09-29T08:38:45.611Z,33.80
2022-09-29T08:41:33.871Z,30.73
2022-09-29T08:44:31.114Z,25.25
2022-09-29T08:47:09.654Z,19.95
2022-09-29T08:49:43.375Z,19.25
2022-09-29T08:52:17.425Z,17.20
2022-09-29T08:54:48.748Z,17.20
2022-09-29T08:57:21.150Z,12.27
2022-09-29T09:02:18.647Z,10.70
2022-09-29T09:04:58.512Z,10.23
2022-09-29T09:07:28.767Z,11.27
2022-09-29T09:09:57.463Z,12.02
2022-09-29T09:12:30.847Z,8.18
2022-09-29T09:15:06.974Z,8.98
2022-09-29T09:17:34.167Z,8.93
2022-09-29T09:20:04.518Z,8.35
2022-09-29T09:22:44.584Z,8.27
2022-09-29T09:25:14.664Z,9.80
2022-09-29T09:27:44.757Z,8.82
2022-09-29T09:30:17.120Z,15.65
2022-09-29T09:32:54.078Z,9.85
2022-09-29T09:35:24.086Z,8.25
2022-09-29T09:37:53.812Z,8.52
2022-09-29T09:40:24.195Z,8.00
2022-09-29T09:42:53.723Z,6.68
2022-09-29T09:45:28.001Z,7.63
2022-09-29T09:48:02.391Z,10.85
2022-09-29T09:50:30.488Z,7.10
2022-09-29T09:52:59.576Z,8.25
2022-09-29T09:55:27.202Z,6.50
2022-09-29T09:57:54.421Z,6.45
2022-09-29T10:00:21.656Z,6.68
2022-09-29T10:02:55.881Z,5.82
2022-09-29T10:05:26.255Z,4.93
2022-09-29T10:07:53.988Z,4.70
2022-09-29T10:10:25.852Z,4.57
2022-09-29T10:13:13.065Z,6.70
2022-09-29T10:15:40.288Z,3.90
2022-09-29T10:18:12.062Z,4.68
2022-09-29T10:20:41.848Z,5.50
2022-09-29T10:23:27.169Z,4.15
2022-09-29T10:26:00.254Z,3.35
2022-09-29T10:28:29.676Z,3.55
2022-09-29T10:30:57.183Z,3.20
2022-09-29T10:33:25.873Z,2.95
2022-09-29T10:36:04.053Z,2.67
2022-09-29T10:38:32.296Z,3.38
2022-09-29T10:41:02.261Z,2.67
2022-09-29T10:43:35.387Z,2.35
2022-09-29T10:46:02.729Z,3.88
2022-09-29T10:48:30.083Z,31.73
2022-09-29T10:53:43.120Z,1.88
2022-09-29T10:56:10.875Z,2.33
2022-09-29T10:58:57.607Z,2.15
2022-09-29T11:01:30.134Z,1.50
2022-09-29T11:04:01.675Z,1.52
2022-09-29T11:08:57.073Z,0.85
2022-09-29T11:11:32.113Z,1.15
2022-09-29T11:13:59.746Z,1.27
2022-09-29T11:16:26.962Z,0.40
2022-09-29T11:18:55.107Z,1.13
2022-09-29T11:21:22.375Z,2.05
2022-09-29T11:23:55.475Z,0.60
2022-09-29T11:26:48.717Z,2.38
2022-09-29T11:29:34.539Z,1.67
2022-09-29T11:32:01.719Z,3.10
2022-09-29T11:34:37.847Z,1.52
2022-09-29T11:37:23.533Z,2.42
2022-09-29T11:40:02.266Z,1.55
2022-09-29T11:42:55.556Z,3.53
2022-09-29T11:45:24.915Z,0.70
2022-09-29T11:47:52.715Z,1.55
2022-09-29T11:50:24.974Z,0.73
2022-09-29T11:53:10.989Z,1.00
2022-09-29T11:55:57.088Z,0.88
2022-09-29T11:58:27.317Z,0.57
2022-09-29T12:01:01.259Z,0.95
2022-09-29T12:03:40.686Z,2.40
2022-09-29T12:06:07.926Z,1.15
2022-09-29T12:08:47.360Z,0.95
2022-09-29T12:11:41.932Z,4.45
2022-09-29T12:14:04.750Z,0.73
2022-09-29T12:16:34.165Z,1.70
2022-09-29T12:19:05.905Z,0.70
2022-09-29T12:21:35.784Z,1.25
2022-09-29T12:24:06.811Z,0.30
2022-09-29T12:26:34.389Z,1.55
2022-09-29T12:29:02.367Z,0.52
2022-09-29T12:31:32.448Z,1.58
2022-09-29T12:34:01.112Z,0.90
2022-09-29T12:36:44.727Z,34.97
2022-09-29T12:39:31.590Z,3.90
2022-09-29T12:42:19.089Z,0.82
2022-09-29T12:44:52.319Z,0.77
2022-09-29T12:47:34.592Z,1.17
2022-09-29T12:50:06.436Z,0.40
2022-09-29T12:52:39.165Z,1.15
2022-09-29T12:55:09.633Z,3.55
2022-09-29T12:57:41.784Z,0.70
2022-09-29T13:00:12.558Z,0.60
2022-09-29T13:02:48.681Z,1.40
2022-09-29T13:05:42.248Z,2.72
2022-09-29T13:08:28.347Z,0.50
2022-09-29T13:10:55.567Z,0.30
2022-09-29T13:13:22.751Z,0.43
2022-09-29T13:15:49.985Z,1.50
2022-09-29T13:18:35.797Z,1.58
2022-09-29T13:21:14.040Z,0.20
2022-09-29T13:23:47.438Z,0.45
2022-09-29T13:26:17.839Z,0.68
2022-09-29T13:28:53.037Z,1.52
2022-09-29T13:31:22.734Z,0.45
2022-09-29T13:33:52.068Z,0.40
2022-09-29T13:36:24.116Z,0.20
2022-09-29T13:38:55.471Z,0.50
2022-09-29T13:41:22.655Z,0.95
2022-09-29T13:43:53.019Z,0.25
2022-09-29T13:46:32.464Z,0.45
2022-09-29T13:49:14.527Z,0.28
2022-09-29T13:51:54.123Z,1.48
2022-09-29T13:54:30.373Z,0.20
2022-09-29T13:57:01.982Z,0.90
2022-09-29T14:01:56.547Z,2.50
2022-09-29T14:04:44.074Z,0.82
2022-09-29T14:07:12.943Z,3.55
2022-09-29T14:09:42.785Z,2.70
2022-09-29T14:12:17.059Z,1.15
2022-09-29T14:14:46.227Z,1.15
2022-09-29T14:17:18.280Z,0.98
2022-09-29T14:19:59.035Z,1.48
2022-09-29T14:22:32.416Z,3.05
2022-09-29T14:25:08.455Z,0.43
2022-09-29T14:27:51.912Z,0.25
2022-09-29T14:30:20.729Z,1.38
2022-09-29T14:32:47.973Z,1.02
2022-09-29T14:35:35.457Z,1.25
2022-09-29T14:38:09.413Z,0.40
2022-09-29T14:40:36.699Z,2.60
2022-09-29T14:43:12.223Z,0.30
2022-09-29T14:46:10.083Z,1.95
2022-09-29T14:49:03.091Z,1.17
2022-09-29T14:51:53.756Z,1.05
2022-09-29T14:54:23.728Z,18.80
2022-09-29T14:57:03.027Z,40.17
2022-09-29T14:59:33.843Z,10.73
2022-09-29T15:02:05.532Z,2.30
2022-09-29T15:07:04.951Z,0.40
2022-09-29T15:09:35.954Z,0.20
2022-09-29T15:12:04.362Z,0.22
2022-09-29T15:14:36.924Z,1.90
2022-09-29T15:17:09.595Z,0.40
2022-09-29T15:19:40.863Z,0.90
2022-09-29T15:22:31.256Z,0.40
2022-09-29T15:25:11.566Z,0.85
2022-09-29T15:27:40.609Z,0.20
2022-09-29T15:30:14.492Z,0.90
2022-09-29T15:32:41.695Z,0.20
2022-09-29T15:35:09.767Z,0.63
2022-09-29T15:37:46.055Z,0.20
2022-09-29T15:40:16.954Z,0.40
2022-09-29T15:42:46.795Z,1.33
2022-09-29T15:45:18.138Z,2.58
2022-09-29T15:47:45.375Z,0.60
2022-09-29T15:50:26.089Z,3.58
2022-09-29T15:52:53.387Z,0.50
2022-09-29T15:55:23.087Z,0.90
2022-09-29T15:57:51.283Z,0.60
2022-09-29T16:00:24.411Z,16.55
2022-09-29T16:03:10.163Z,142.90
2022-09-29T16:05:43.013Z,7.25
2022-09-29T16:08:22.278Z,2.35
2022-09-29T16:11:08.592Z,5.22
2022-09-29T16:13:37.551Z,1.48
2022-09-29T16:16:10.248Z,2.60
2022-09-29T16:18:37.517Z,0.88
2022-09-29T16:21:18.988Z,5.60
2022-09-29T16:24:06.802Z,0.40
2022-09-29T16:26:38.475Z,1.13
2022-09-29T16:31:33.777Z,0.82
2022-09-29T16:34:01.976Z,1.98
2022-09-29T16:36:33.844Z,4.53
2022-09-29T16:39:01.931Z,1.75
2022-09-29T16:41:40.938Z,7.13
2022-09-29T16:44:14.150Z,1.05
2022-09-29T16:46:52.689Z,2.58
2022-09-29T16:49:28.211Z,2.05
2022-09-29T16:51:57.071Z,1.10
2022-09-29T16:54:26.575Z,1.58
2022-09-29T16:57:12.716Z,6.05
2022-09-29T16:59:39.947Z,1.65
2022-09-29T17:02:10.427Z,3.03
2022-09-29T17:04:37.889Z,2.58
2022-09-29T17:07:05.399Z,5.05
2022-09-29T17:09:32.793Z,4.53
2022-09-29T17:12:00.140Z,1.85
2022-09-29T17:14:30.815Z,4.95
2022-09-29T17:16:58.551Z,2.40
2022-09-29T17:19:26.305Z,2.45
2022-09-29T17:21:54.011Z,1.50
2022-09-29T17:24:21.331Z,2.13
2022-09-29T17:27:07.151Z,0.85
2022-09-29T17:29:36.016Z,23.15
2022-09-29T17:32:03.495Z,80.38
2022-09-29T17:34:31.009Z,12.63
2022-09-29T17:37:02.009Z,5.88
2022-09-29T17:39:29.423Z,4.22
2022-09-29T17:41:56.676Z,1.25
2022-09-29T17:44:23.914Z,2.13
2022-09-29T17:46:57.206Z,8.85
2022-09-29T17:49:29.725Z,6.78
2022-09-29T17:51:56.972Z,2.13
2022-09-29T17:54:27.179Z,4.13
2022-09-29T17:56:57.764Z,2.70
2022-09-29T17:59:27.487Z,4.40
2022-09-29T18:01:54.787Z,5.63
2022-09-29T18:04:22.207Z,2.85
2022-09-29T18:06:49.659Z,2.55
2022-09-29T18:09:17.931Z,2.35
2022-09-29T18:11:45.639Z,4.15
2022-09-29T18:14:12.886Z,2.45
2022-09-29T18:16:40.171Z,2.05
2022-09-29T18:19:17.052Z,3.25
2022-09-29T18:21:45.222Z,4.78
2022-09-29T18:24:13.285Z,3.30
2022-09-29T18:26:41.530Z,6.00
2022-09-29T18:29:19.136Z,6.15
2022-09-29T18:31:46.393Z,65.53
2022-09-29T18:34:15.551Z,44.15
2022-09-29T18:36:43.024Z,9.68
2022-09-29T18:39:10.240Z,2.03
2022-09-29T18:41:37.728Z,5.15
2022-09-29T18:44:14.149Z,5.45
2022-09-29T18:46:43.737Z,6.80
2022-09-29T18:49:15.165Z,5.65
2022-09-29T18:51:42.395Z,2.67
2022-09-29T18:54:09.666Z,2.80
2022-09-29T18:56:36.939Z,4.20
2022-09-29T18:59:07.692Z,5.38
2022-09-29T19:01:35.053Z,4.10
2022-09-29T19:04:02.463Z,2.10
2022-09-29T19:06:29.796Z,1.92
2022-09-29T19:08:57.178Z,4.53
2022-09-29T19:11:25.706Z,2.20
2022-09-29T19:13:55.351Z,14.93
2022-09-29T19:16:23.284Z,344.83
2022-09-29T19:18:50.713Z,311.75
2022-09-29T19:21:18.042Z,102.80
2022-09-29T19:23:46.857Z,45.95
2022-09-29T19:26:16.828Z,3.78
2022-09-29T19:28:44.588Z,4.68
2022-09-29T19:31:13.826Z,4.45
2022-09-29T19:33:41.918Z,4.22
2022-09-29T19:36:10.494Z,3.88
2022-09-29T19:38:38.291Z,3.30
2022-09-29T19:41:05.987Z,3.85
2022-09-29T19:43:33.420Z,8.38
2022-09-29T19:46:06.842Z,3.33
2022-09-29T19:48:34.157Z,3.58
2022-09-29T19:51:20.193Z,4.70
2022-09-29T19:53:49.546Z,8.18
2022-09-29T19:56:18.113Z,3.55
2022-09-29T19:58:45.465Z,7.30
2022-09-29T20:01:12.974Z,3.42
2022-09-29T20:03:40.481Z,4.40
2022-09-29T20:06:09.072Z,4.50
2022-09-29T20:08:36.325Z,3.95
2022-09-29T20:11:07.688Z,5.53
2022-09-29T20:13:35.037Z,6.63
2022-09-29T20:16:02.620Z,4.80
2022-09-29T20:18:29.860Z,4.97
2022-09-29T20:20:57.643Z,4.78
2022-09-29T20:23:25.138Z,4.55
2022-09-29T20:25:59.242Z,4.32
2022-09-29T20:28:26.548Z,5.50
2022-09-29T20:30:58.197Z,5.88
2022-09-29T20:35:52.851Z,6.40
2022-09-29T20:38:20.155Z,7.60
2022-09-29T20:40:48.848Z,8.43
2022-09-29T20:43:16.132Z,8.93
2022-09-29T20:45:43.396Z,5.80
2022-09-29T20:48:10.750Z,6.60
2022-09-29T20:50:38.216Z,9.13
2022-09-29T20:53:05.591Z,5.60
2022-09-29T20:55:34.857Z,5.72
2022-09-29T20:58:03.153Z,7.13
2022-09-29T21:00:30.462Z,7.53
2022-09-29T21:02:58.103Z,5.55
2022-09-29T21:05:25.498Z,5.35
2022-09-29T21:07:52.757Z,6.38
2022-09-29T21:10:20.102Z,6.85
2022-09-29T21:12:47.348Z,6.40
2022-09-29T21:15:14.712Z,5.57
2022-09-29T21:17:43.128Z,5.53
2022-09-29T21:20:10.584Z,10.15
2022-09-29T21:22:37.903Z,7.78
2022-09-29T21:25:05.290Z,6.22
2022-09-29T21:27:33.903Z,7.43
2022-09-29T21:30:01.396Z,10.55
2022-09-29T21:32:29.260Z,41.72
2022-09-29T21:34:57.307Z,44.05
2022-09-29T21:37:24.497Z,26.80
2022-09-29T21:39:52.072Z,12.48
2022-09-29T21:42:19.406Z,8.63
2022-09-29T21:44:46.657Z,9.18
2022-09-29T21:47:13.946Z,12.23
2022-09-29T21:49:42.923Z,7.65
2022-09-29T21:52:10.248Z,7.97
2022-09-29T21:54:38.753Z,7.22
2022-09-29T21:57:06.899Z,11.27
2022-09-29T21:59:34.167Z,7.40
2022-09-29T22:02:01.550Z,7.38
2022-09-29T22:04:28.930Z,8.93
2022-09-29T22:06:56.374Z,11.18
2022-09-29T22:09:23.982Z,6.72
2022-09-29T22:11:51.320Z,8.63
2022-09-29T22:14:19.076Z,8.70
2022-09-29T22:16:46.537Z,10.13
2022-09-29T22:19:29.511Z,5.43
2022-09-29T22:21:56.831Z,6.78
2022-09-29T22:24:26.577Z,6.05
2022-09-29T22:26:54.087Z,6.18
2022-09-29T22:29:21.564Z,3.80
2022-09-29T22:31:48.954Z,4.90
2022-09-29T22:34:16.245Z,4.00
2022-09-29T22:36:43.465Z,5.80
2022-09-29T22:39:10.938Z,6.28
2022-09-29T22:41:39.955Z,1.52
2022-09-29T22:44:07.846Z,4.97
2022-09-29T22:46:35.406Z,5.05
2022-09-29T22:49:02.883Z,4.63
2022-09-29T22:51:30.372Z,4.63
2022-09-29T22:53:57.575Z,5.45
2022-09-29T22:56:28.738Z,1.27
2022-09-29T22:58:59.572Z,3.35
2022-09-29T23:01:27.046Z,2.33
2022-09-29T23:03:54.459Z,4.30
2022-09-29T23:06:21.974Z,2.97
2022-09-29T23:08:49.206Z,2.90
2022-09-29T23:11:17.919Z,1.23
2022-09-29T23:13:45.332Z,1.20
2022-09-29T23:16:13.898Z,3.65
2022-09-29T23:18:44.873Z,1.33
2022-09-29T23:21:19.349Z,70.97
2022-09-29T23:23:54.873Z,79.82
2022-09-29T23:26:22.482Z,10.18
2022-09-29T23:28:49.744Z,2.45
2022-09-29T23:31:17.048Z,2.90
2022-09-29T23:33:45.141Z,2.75
2022-09-29T23:36:13.684Z,2.50
2022-09-29T23:39:00.891Z,4.15
2022-09-29T23:41:30.009Z,8.07
2022-09-29T23:43:58.043Z,6.43
2022-09-29T23:46:25.804Z,6.68
2022-09-29T23:48:53.267Z,4.70
2022-09-29T23:51:20.523Z,8.15
2022-09-29T23:53:47.757Z,5.80
2022-09-29T23:56:15.023Z,3.03
2022-09-29T23:58:42.249Z,5.63
